sensor_id;sensor_type;location;lat;lon;timestamp;pressure;altitude;pressure_sealevel;temperature;humidity
46682;BME280;34101;53.430;-2.224;2022-08-06T00:00:55;155877.98;;;13.68;88.55
46682;BME280;34101;53.430;-2.224;2022-08-06T00:03:22;155890.13;;;13.73;88.46
46682;BME280;34101;53.430;-2.224;2022-08-06T00:05:50;155898.47;;;13.76;87.81
46682;BME280;34101;53.430;-2.224;2022-08-06T00:08:18;155907.06;;;13.80;87.56
46682;BME280;34101;53.430;-2.224;2022-08-06T00:10:45;155916.70;;;13.84;86.96
46682;BME280;34101;53.430;-2.224;2022-08-06T00:13:12;155911.84;;;13.82;86.91
46682;BME280;34101;53.430;-2.224;2022-08-06T00:15:40;155915.48;;;13.83;86.60
46682;BME280;34101;53.430;-2.224;2022-08-06T00:18:07;155913.70;;;13.83;86.64
46682;BME280;34101;53.430;-2.224;2022-08-06T00:20:35;155903.57;;;13.78;87.16
46682;BME280;34101;53.430;-2.224;2022-08-06T00:23:02;155898.31;;;13.76;86.75
46682;BME280;34101;53.430;-2.224;2022-08-06T00:25:29;155897.34;;;13.76;87.02
46682;BME280;34101;53.430;-2.224;2022-08-06T00:27:56;155895.47;;;13.75;87.14
46682;BME280;34101;53.430;-2.224;2022-08-06T00:30:24;155887.46;;;13.72;87.42
46682;BME280;34101;53.430;-2.224;2022-08-06T00:32:51;155877.82;;;13.68;87.88
46682;BME280;34101;53.430;-2.224;2022-08-06T00:35:19;155868.18;;;13.64;87.68
46682;BME280;34101;53.430;-2.224;2022-08-06T00:37:46;155852.79;;;13.58;87.76
46682;BME280;34101;53.430;-2.224;2022-08-06T00:40:15;155831.89;;;13.50;88.91
46682;BME280;34101;53.430;-2.224;2022-08-06T00:42:42;155821.69;;;13.46;89.23
46682;BME280;34101;53.430;-2.224;2022-08-06T00:45:10;155816.10;;;13.43;89.00
46682;BME280;34101;53.430;-2.224;2022-08-06T00:47:38;155811.97;;;13.42;89.07
46682;BME280;34101;53.430;-2.224;2022-08-06T00:50:06;155802.50;;;13.38;89.26
46682;BME280;34101;53.430;-2.224;2022-08-06T00:52:33;155791.24;;;13.33;89.79
46682;BME280;34101;53.430;-2.224;2022-08-06T00:55:00;155781.52;;;13.29;90.15
46682;BME280;34101;53.430;-2.224;2022-08-06T00:57:28;155775.29;;;13.27;90.64
46682;BME280;34101;53.430;-2.224;2022-08-06T00:59:55;155769.94;;;13.25;91.24
46682;BME280;34101;53.430;-2.224;2022-08-06T01:04:07;155764.11;;;13.22;91.58
46682;BME280;34101;53.430;-2.224;2022-08-06T01:07:30;155730.59;;;13.09;91.22
46682;BME280;34101;53.430;-2.224;2022-08-06T01:10:03;155706.79;;;12.99;91.90
46682;BME280;34101;53.430;-2.224;2022-08-06T01:15:34;155677.64;;;12.88;93.87
46682;BME280;34101;53.430;-2.224;2022-08-06T01:18:20;155680.07;;;12.89;93.23
46682;BME280;34101;53.430;-2.224;2022-08-06T01:20:58;155681.69;;;12.89;94.70
46682;BME280;34101;53.430;-2.224;2022-08-06T01:23:43;155682.66;;;12.90;94.03
46682;BME280;34101;53.430;-2.224;2022-08-06T01:26:50;155675.29;;;12.87;94.36
46682;BME280;34101;53.430;-2.224;2022-08-06T01:29:23;155666.55;;;12.83;93.95
46682;BME280;34101;53.430;-2.224;2022-08-06T01:31:54;155648.42;;;12.76;95.67
46682;BME280;34101;53.430;-2.224;2022-08-06T01:34:27;155649.95;;;12.76;95.75
46682;BME280;34101;53.430;-2.224;2022-08-06T01:37:07;155647.12;;;12.75;95.63
46682;BME280;34101;53.430;-2.224;2022-08-06T01:39:37;155647.04;;;12.75;95.75
46682;BME280;34101;53.430;-2.224;2022-08-06T01:42:07;155637.73;;;12.72;96.72
46682;BME280;34101;53.430;-2.224;2022-08-06T01:44:40;155648.58;;;12.76;96.67
46682;BME280;34101;53.430;-2.224;2022-08-06T01:47:11;155611.83;;;12.61;96.90
46682;BME280;34101;53.430;-2.224;2022-08-06T01:49:42;155608.59;;;12.60;99.02
46682;BME280;34101;53.430;-2.224;2022-08-06T01:52:11;155609.88;;;12.60;98.68
46682;BME280;34101;53.430;-2.224;2022-08-06T01:54:41;155616.04;;;12.63;97.71
46682;BME280;34101;53.430;-2.224;2022-08-06T01:57:09;155611.58;;;12.61;97.88
46682;BME280;34101;53.430;-2.224;2022-08-06T01:59:43;155607.70;;;12.59;97.98
46682;BME280;34101;53.430;-2.224;2022-08-06T02:02:16;155608.99;;;12.60;97.59
46682;BME280;34101;53.430;-2.224;2022-08-06T02:04:47;155611.99;;;12.61;97.90
46682;BME280;34101;53.430;-2.224;2022-08-06T02:07:20;155612.64;;;12.61;96.86
46682;BME280;34101;53.430;-2.224;2022-08-06T02:09:50;155608.43;;;12.60;97.97
46682;BME280;34101;53.430;-2.224;2022-08-06T02:12:21;155609.24;;;12.60;98.14
46682;BME280;34101;53.430;-2.224;2022-08-06T02:14:54;155607.21;;;12.59;98.04
46682;BME280;34101;53.430;-2.224;2022-08-06T02:17:26;155602.03;;;12.57;97.00
46682;BME280;34101;53.430;-2.224;2022-08-06T02:19:56;155576.94;;;12.47;97.85
46682;BME280;34101;53.430;-2.224;2022-08-06T02:22:26;155564.56;;;12.42;98.26
46682;BME280;34101;53.430;-2.224;2022-08-06T02:24:55;155560.75;;;12.41;98.18
46682;BME280;34101;53.430;-2.224;2022-08-06T02:27:24;155557.92;;;12.39;99.10
46682;BME280;34101;53.430;-2.224;2022-08-06T02:29:54;155551.29;;;12.37;98.94
46682;BME280;34101;53.430;-2.224;2022-08-06T02:32:22;155549.50;;;12.36;98.04
46682;BME280;34101;53.430;-2.224;2022-08-06T02:34:50;155506.21;;;12.19;100.00
46682;BME280;34101;53.430;-2.224;2022-08-06T02:37:22;155481.77;;;12.09;100.00
46682;BME280;34101;53.430;-2.224;2022-08-06T02:39:54;155484.84;;;12.10;100.00
46682;BME280;34101;53.430;-2.224;2022-08-06T02:42:29;155481.61;;;12.09;100.00
46682;BME280;34101;53.430;-2.224;2022-08-06T02:45:01;155481.36;;;12.09;100.00
46682;BME280;34101;53.430;-2.224;2022-08-06T02:47:33;155468.58;;;12.03;100.00
46682;BME280;34101;53.430;-2.224;2022-08-06T02:50:05;155474.97;;;12.06;100.00
46682;BME280;34101;53.430;-2.224;2022-08-06T02:52:38;155475.30;;;12.06;100.00
46682;BME280;34101;53.430;-2.224;2022-08-06T02:55:11;155480.56;;;12.08;100.00
46682;BME280;34101;53.430;-2.224;2022-08-06T02:57:41;155474.73;;;12.06;100.00
46682;BME280;34101;53.430;-2.224;2022-08-06T03:00:14;155466.56;;;12.03;100.00
46682;BME280;34101;53.430;-2.224;2022-08-06T03:02:44;155469.31;;;12.04;100.00
46682;BME280;34101;53.430;-2.224;2022-08-06T03:05:18;155465.10;;;12.02;100.00
46682;BME280;34101;53.430;-2.224;2022-08-06T03:07:48;155465.34;;;12.02;100.00
46682;BME280;34101;53.430;-2.224;2022-08-06T03:10:18;155468.82;;;12.04;100.00
46682;BME280;34101;53.430;-2.224;2022-08-06T03:12:47;155478.53;;;12.07;100.00
46682;BME280;34101;53.430;-2.224;2022-08-06T03:15:18;155476.67;;;12.07;100.00
46682;BME280;34101;53.430;-2.224;2022-08-06T03:17:47;155467.45;;;12.03;100.00
46682;BME280;34101;53.430;-2.224;2022-08-06T03:20:18;155454.74;;;11.98;100.00
46682;BME280;34101;53.430;-2.224;2022-08-06T03:22:50;155443.01;;;11.93;100.00
46682;BME280;34101;53.430;-2.224;2022-08-06T03:25:19;155423.19;;;11.85;100.00
46682;BME280;34101;53.430;-2.224;2022-08-06T03:27:47;155415.18;;;11.82;100.00
46682;BME280;34101;53.430;-2.224;2022-08-06T03:30:17;155413.80;;;11.81;100.00
46682;BME280;34101;53.430;-2.224;2022-08-06T03:32:45;155416.31;;;11.82;100.00
46682;BME280;34101;53.430;-2.224;2022-08-06T03:35:15;155417.04;;;11.83;100.00
46682;BME280;34101;53.430;-2.224;2022-08-06T03:37:43;155424.64;;;11.86;100.00
46682;BME280;34101;53.430;-2.224;2022-08-06T03:40:12;155429.74;;;11.88;100.00
46682;BME280;34101;53.430;-2.224;2022-08-06T03:42:41;155411.70;;;11.81;100.00
46682;BME280;34101;53.430;-2.224;2022-08-06T03:45:09;155379.34;;;11.68;100.00
46682;BME280;34101;53.430;-2.224;2022-08-06T03:47:41;155375.62;;;11.66;100.00
46682;BME280;34101;53.430;-2.224;2022-08-06T03:50:10;155370.68;;;11.64;100.00
46682;BME280;34101;53.430;-2.224;2022-08-06T03:52:41;155354.91;;;11.58;100.00
46682;BME280;34101;53.430;-2.224;2022-08-06T03:55:19;155349.49;;;11.56;100.00
46682;BME280;34101;53.430;-2.224;2022-08-06T03:57:49;155357.50;;;11.59;100.00
46682;BME280;34101;53.430;-2.224;2022-08-06T04:00:20;155349.00;;;11.55;100.00
46682;BME280;34101;53.430;-2.224;2022-08-06T04:02:50;155354.58;;;11.58;100.00
46682;BME280;34101;53.430;-2.224;2022-08-06T04:05:19;155342.85;;;11.53;100.00
46682;BME280;34101;53.430;-2.224;2022-08-06T04:07:48;155347.55;;;11.55;100.00
46682;BME280;34101;53.430;-2.224;2022-08-06T04:10:17;155343.50;;;11.53;100.00
46682;BME280;34101;53.430;-2.224;2022-08-06T04:12:45;155339.78;;;11.52;100.00
46682;BME280;34101;53.430;-2.224;2022-08-06T04:15:14;155339.21;;;11.51;100.00
46682;BME280;34101;53.430;-2.224;2022-08-06T04:17:44;155336.79;;;11.50;100.00
46682;BME280;34101;53.430;-2.224;2022-08-06T04:20:20;155332.91;;;11.49;100.00
46682;BME280;34101;53.430;-2.224;2022-08-06T04:22:49;155326.43;;;11.46;100.00
46682;BME280;34101;53.430;-2.224;2022-08-06T04:25:16;155318.75;;;11.43;100.00
46682;BME280;34101;53.430;-2.224;2022-08-06T04:27:45;155314.06;;;11.41;100.00
46682;BME280;34101;53.430;-2.224;2022-08-06T04:30:14;155303.14;;;11.37;100.00
46682;BME280;34101;53.430;-2.224;2022-08-06T04:32:44;155299.18;;;11.35;100.00
46682;BME280;34101;53.430;-2.224;2022-08-06T04:35:12;155304.03;;;11.37;100.00
46682;BME280;34101;53.430;-2.224;2022-08-06T04:37:40;155305.32;;;11.38;100.00
46682;BME280;34101;53.430;-2.224;2022-08-06T04:40:08;155302.33;;;11.37;100.00
46682;BME280;34101;53.430;-2.224;2022-08-06T04:43:06;155294.00;;;11.33;100.00
46682;BME280;34101;53.430;-2.224;2022-08-06T04:45:34;155295.05;;;11.34;100.00
46682;BME280;34101;53.430;-2.224;2022-08-06T04:48:03;155293.03;;;11.33;100.00
46682;BME280;34101;53.430;-2.224;2022-08-06T04:50:31;155291.82;;;11.32;100.00
46682;BME280;34101;53.430;-2.224;2022-08-06T04:53:09;155293.51;;;11.33;100.00
46682;BME280;34101;53.430;-2.224;2022-08-06T04:55:36;155301.84;;;11.36;100.00
46682;BME280;34101;53.430;-2.224;2022-08-06T04:58:06;155311.07;;;11.40;100.00
46682;BME280;34101;53.430;-2.224;2022-08-06T05:00:36;155320.69;;;11.44;100.00
46682;BME280;34101;53.430;-2.224;2022-08-06T05:03:04;155324.57;;;11.45;100.00
46682;BME280;34101;53.430;-2.224;2022-08-06T05:05:36;155326.68;;;11.46;100.00
46682;BME280;34101;53.430;-2.224;2022-08-06T05:08:05;155333.47;;;11.49;100.00
46682;BME280;34101;53.430;-2.224;2022-08-06T05:10:47;155332.50;;;11.49;100.00
46682;BME280;34101;53.430;-2.224;2022-08-06T05:13:20;155335.33;;;11.50;100.00
46682;BME280;34101;53.430;-2.224;2022-08-06T05:15:53;155339.78;;;11.52;100.00
46682;BME280;34101;53.430;-2.224;2022-08-06T05:18:25;155355.47;;;11.58;100.00
46682;BME280;34101;53.430;-2.224;2022-08-06T05:20:55;155358.47;;;11.59;100.00
46682;BME280;34101;53.430;-2.224;2022-08-06T05:23:26;155363.97;;;11.61;100.00
46682;BME280;34101;53.430;-2.224;2022-08-06T05:25:55;155369.23;;;11.63;100.00
46682;BME280;34101;53.430;-2.224;2022-08-06T05:28:22;155376.02;;;11.66;100.00
46682;BME280;34101;53.430;-2.224;2022-08-06T05:30:51;155368.26;;;11.63;100.00
46682;BME280;34101;53.430;-2.224;2022-08-06T05:33:27;155361.06;;;11.60;100.00
46682;BME280;34101;53.430;-2.224;2022-08-06T05:35:55;155360.65;;;11.60;100.00
46682;BME280;34101;53.430;-2.224;2022-08-06T05:38:22;155360.97;;;11.60;100.00
46682;BME280;34101;53.430;-2.224;2022-08-06T05:40:50;155371.49;;;11.64;100.00
46682;BME280;34101;53.430;-2.224;2022-08-06T05:43:17;155384.44;;;11.70;100.00
46682;BME280;34101;53.430;-2.224;2022-08-06T05:45:46;155399.97;;;11.76;100.00
46682;BME280;34101;53.430;-2.224;2022-08-06T05:48:15;155411.38;;;11.80;100.00
46682;BME280;34101;53.430;-2.224;2022-08-06T05:50:48;155417.52;;;11.83;100.00
46682;BME280;34101;53.430;-2.224;2022-08-06T05:53:21;155419.14;;;11.84;100.00
46682;BME280;34101;53.430;-2.224;2022-08-06T05:55:53;155429.66;;;11.88;100.00
46682;BME280;34101;53.430;-2.224;2022-08-06T05:58:25;155447.70;;;11.95;100.00
46682;BME280;34101;53.430;-2.224;2022-08-06T06:00:54;155465.42;;;12.02;100.00
46682;BME280;34101;53.430;-2.224;2022-08-06T06:03:26;155487.03;;;12.11;100.00
46682;BME280;34101;53.430;-2.224;2022-08-06T06:05:54;155504.35;;;12.18;100.00
46682;BME280;34101;53.430;-2.224;2022-08-06T06:08:23;155524.58;;;12.26;100.00
46682;BME280;34101;53.430;-2.224;2022-08-06T06:10:51;155555.57;;;12.38;100.00
46682;BME280;34101;53.430;-2.224;2022-08-06T06:13:20;155587.46;;;12.51;100.00
46682;BME280;34101;53.430;-2.224;2022-08-06T06:15:51;155635.30;;;12.71;98.71
46682;BME280;34101;53.430;-2.224;2022-08-06T06:18:28;155683.47;;;12.90;96.91
46682;BME280;34101;53.430;-2.224;2022-08-06T06:21:04;155723.30;;;13.06;94.61
46682;BME280;34101;53.430;-2.224;2022-08-06T06:23:40;155731.08;;;13.09;93.12
46682;BME280;34101;53.430;-2.224;2022-08-06T06:26:17;155762.90;;;13.22;92.65
46682;BME280;34101;53.430;-2.224;2022-08-06T06:28:55;155782.17;;;13.30;91.24
46682;BME280;34101;53.430;-2.224;2022-08-06T06:31:30;155814.00;;;13.42;91.03
46682;BME280;34101;53.430;-2.224;2022-08-06T06:34:15;155805.66;;;13.39;90.90
46682;BME280;34101;53.430;-2.224;2022-08-06T06:36:51;155824.36;;;13.47;90.09
46682;BME280;34101;53.430;-2.224;2022-08-06T06:39:27;155820.15;;;13.45;89.07
46682;BME280;34101;53.430;-2.224;2022-08-06T06:42:01;155827.20;;;13.48;88.07
46682;BME280;34101;53.430;-2.224;2022-08-06T06:44:44;155846.15;;;13.55;89.43
46682;BME280;34101;53.430;-2.224;2022-08-06T06:47:17;155853.52;;;13.58;88.79
46682;BME280;34101;53.430;-2.224;2022-08-06T06:49:49;155855.79;;;13.59;88.72
46682;BME280;34101;53.430;-2.224;2022-08-06T06:52:23;155867.77;;;13.64;88.08
46682;BME280;34101;53.430;-2.224;2022-08-06T06:54:57;155880.81;;;13.69;88.80
46682;BME280;34101;53.430;-2.224;2022-08-06T06:57:31;155910.05;;;13.81;87.17
46682;BME280;34101;53.430;-2.224;2022-08-06T07:00:03;155928.44;;;13.88;86.64
46682;BME280;34101;53.430;-2.224;2022-08-06T07:02:35;155927.07;;;13.88;86.76
46682;BME280;34101;53.430;-2.224;2022-08-06T07:05:05;155967.98;;;14.04;87.39
46682;BME280;34101;53.430;-2.224;2022-08-06T07:07:35;155969.52;;;14.05;84.84
46682;BME280;34101;53.430;-2.224;2022-08-06T07:10:07;155966.92;;;14.04;86.33
46682;BME280;34101;53.430;-2.224;2022-08-06T07:12:36;155998.52;;;14.17;86.20
46682;BME280;34101;53.430;-2.224;2022-08-06T07:15:06;156032.39;;;14.30;84.89
46682;BME280;34101;53.430;-2.224;2022-08-06T07:17:36;156060.02;;;14.41;84.31
46682;BME280;34101;53.430;-2.224;2022-08-06T07:20:07;156078.01;;;14.49;83.88
46682;BME280;34101;53.430;-2.224;2022-08-06T07:22:37;156094.46;;;14.55;82.85
46682;BME280;34101;53.430;-2.224;2022-08-06T07:25:07;156072.17;;;14.46;84.08
46682;BME280;34101;53.430;-2.224;2022-08-06T07:27:38;156093.57;;;14.55;83.63
46682;BME280;34101;53.430;-2.224;2022-08-06T07:30:08;156112.37;;;14.62;83.24
46682;BME280;34101;53.430;-2.224;2022-08-06T07:32:35;156134.09;;;14.71;82.81
46682;BME280;34101;53.430;-2.224;2022-08-06T07:35:05;156143.73;;;14.75;81.88
46682;BME280;34101;53.430;-2.224;2022-08-06T07:37:35;156142.27;;;14.74;81.91
46682;BME280;34101;53.430;-2.224;2022-08-06T07:40:07;156177.94;;;14.89;81.79
46682;BME280;34101;53.430;-2.224;2022-08-06T07:42:37;156209.63;;;15.01;80.90
46682;BME280;34101;53.430;-2.224;2022-08-06T07:45:08;156234.68;;;15.11;80.72
46682;BME280;34101;53.430;-2.224;2022-08-06T07:47:42;156286.40;;;15.32;80.19
46682;BME280;34101;53.430;-2.224;2022-08-06T07:50:12;156309.99;;;15.42;78.52
46682;BME280;34101;53.430;-2.224;2022-08-06T07:52:40;156351.91;;;15.59;78.51
46682;BME280;34101;53.430;-2.224;2022-08-06T07:55:09;156406.65;;;15.81;77.03
46682;BME280;34101;53.430;-2.224;2022-08-06T07:57:37;156473.88;;;16.08;76.84
46682;BME280;34101;53.430;-2.224;2022-08-06T08:00:06;156516.55;;;16.25;75.94
46682;BME280;34101;53.430;-2.224;2022-08-06T08:02:34;156579.91;;;16.50;73.03
46682;BME280;34101;53.430;-2.224;2022-08-06T08:05:02;156712.49;;;17.03;71.95
46682;BME280;34101;53.430;-2.224;2022-08-06T08:07:30;156812.97;;;17.44;69.21
46682;BME280;34101;53.430;-2.224;2022-08-06T08:09:59;156997.75;;;18.18;65.74
46682;BME280;34101;53.430;-2.224;2022-08-06T08:12:28;157095.28;;;18.57;63.29
46682;BME280;34101;53.430;-2.224;2022-08-06T08:14:56;157063.28;;;18.44;63.27
46682;BME280;34101;53.430;-2.224;2022-08-06T08:17:24;157176.02;;;18.89;63.82
46682;BME280;34101;53.430;-2.224;2022-08-06T08:19:51;157329.91;;;19.51;59.67
46682;BME280;34101;53.430;-2.224;2022-08-06T08:22:20;157486.36;;;20.14;58.38
46682;BME280;34101;53.430;-2.224;2022-08-06T08:24:47;157576.19;;;20.50;57.04
46682;BME280;34101;53.430;-2.224;2022-08-06T08:27:15;157679.14;;;20.91;56.16
46682;BME280;34101;53.430;-2.224;2022-08-06T08:29:42;157899.32;;;21.79;53.32
46682;BME280;34101;53.430;-2.224;2022-08-06T08:32:09;158056.77;;;22.42;50.70
46682;BME280;34101;53.430;-2.224;2022-08-06T08:34:37;158136.61;;;22.74;49.05
46682;BME280;34101;53.430;-2.224;2022-08-06T08:37:04;158238.37;;;23.15;48.48
46682;BME280;34101;53.430;-2.224;2022-08-06T08:39:31;158350.81;;;23.60;47.79
46682;BME280;34101;53.430;-2.224;2022-08-06T08:42:03;158264.99;;;23.25;46.61
46682;BME280;34101;53.430;-2.224;2022-08-06T08:44:30;158314.25;;;23.45;46.83
46682;BME280;34101;53.430;-2.224;2022-08-06T08:46:59;158409.28;;;23.83;45.44
46682;BME280;34101;53.430;-2.224;2022-08-06T08:49:35;158223.63;;;23.09;46.82
46682;BME280;34101;53.430;-2.224;2022-08-06T08:52:07;158161.36;;;22.84;48.14
46682;BME280;34101;53.430;-2.224;2022-08-06T08:54:36;157947.57;;;21.98;48.43
46682;BME280;34101;53.430;-2.224;2022-08-06T08:57:05;157861.65;;;21.64;49.23
46682;BME280;34101;53.430;-2.224;2022-08-06T08:59:35;157807.72;;;21.42;49.36
46682;BME280;34101;53.430;-2.224;2022-08-06T09:02:04;157828.95;;;21.51;48.07
46682;BME280;34101;53.430;-2.224;2022-08-06T09:04:32;157765.42;;;21.25;49.44
46682;BME280;34101;53.430;-2.224;2022-08-06T09:07:00;157816.83;;;21.46;49.40
46682;BME280;34101;53.430;-2.224;2022-08-06T09:09:28;157837.33;;;21.54;48.77
46682;BME280;34101;53.430;-2.224;2022-08-06T09:12:00;157895.74;;;21.78;49.27
46682;BME280;34101;53.430;-2.224;2022-08-06T09:14:27;157786.73;;;21.34;49.97
46682;BME280;34101;53.430;-2.224;2022-08-06T09:16:57;157783.48;;;21.33;50.20
46682;BME280;34101;53.430;-2.224;2022-08-06T09:19:25;157684.75;;;20.93;50.94
46682;BME280;34101;53.430;-2.224;2022-08-06T09:21:52;157658.40;;;20.83;51.89
46682;BME280;34101;53.430;-2.224;2022-08-06T09:24:20;157623.11;;;20.68;51.53
46682;BME280;34101;53.430;-2.224;2022-08-06T09:27:02;157579.61;;;20.51;51.97
46682;BME280;34101;53.430;-2.224;2022-08-06T09:29:31;157434.02;;;19.93;52.72
46682;BME280;34101;53.430;-2.224;2022-08-06T09:31:59;157359.41;;;19.63;54.68
46682;BME280;34101;53.430;-2.224;2022-08-06T09:34:37;157294.89;;;19.37;55.40
46682;BME280;34101;53.430;-2.224;2022-08-06T09:37:05;157492.22;;;20.16;53.90
46682;BME280;34101;53.430;-2.224;2022-08-06T09:39:34;157602.46;;;20.60;52.32
46682;BME280;34101;53.430;-2.224;2022-08-06T09:42:03;157557.50;;;20.42;51.95
46682;BME280;34101;53.430;-2.224;2022-08-06T09:44:31;157541.32;;;20.36;52.85
46682;BME280;34101;53.430;-2.224;2022-08-06T09:46:59;157416.62;;;19.86;53.81
46682;BME280;34101;53.430;-2.224;2022-08-06T09:49:27;157391.83;;;19.76;54.62
46682;BME280;34101;53.430;-2.224;2022-08-06T09:52:11;157356.16;;;19.61;55.21
46682;BME280;34101;53.430;-2.224;2022-08-06T09:54:39;157255.72;;;19.21;56.78
46682;BME280;34101;53.430;-2.224;2022-08-06T09:57:08;157234.27;;;19.13;57.80
46682;BME280;34101;53.430;-2.224;2022-08-06T09:59:45;157251.66;;;19.20;57.43
46682;BME280;34101;53.430;-2.224;2022-08-06T10:02:13;157260.27;;;19.23;56.79
46682;BME280;34101;53.430;-2.224;2022-08-06T10:04:41;157392.97;;;19.76;55.49
46682;BME280;34101;53.430;-2.224;2022-08-06T10:07:09;157731.59;;;21.12;52.41
46682;BME280;34101;53.430;-2.224;2022-08-06T10:09:50;157812.03;;;21.44;51.13
46682;BME280;34101;53.430;-2.224;2022-08-06T10:12:18;157941.38;;;21.96;49.56
46682;BME280;34101;53.430;-2.224;2022-08-06T10:14:45;158047.90;;;22.38;47.60
46682;BME280;34101;53.430;-2.224;2022-08-06T10:17:15;158025.03;;;22.29;48.33
46682;BME280;34101;53.430;-2.224;2022-08-06T10:19:45;158086.31;;;22.54;47.50
46682;BME280;34101;53.430;-2.224;2022-08-06T10:22:15;158016.89;;;22.26;48.11
46682;BME280;34101;53.430;-2.224;2022-08-06T10:24:43;157882.23;;;21.72;49.63
46682;BME280;34101;53.430;-2.224;2022-08-06T10:27:12;157840.42;;;21.55;49.20
46682;BME280;34101;53.430;-2.224;2022-08-06T10:29:44;157819.27;;;21.47;49.47
46682;BME280;34101;53.430;-2.224;2022-08-06T10:32:15;157853.60;;;21.61;48.32
46682;BME280;34101;53.430;-2.224;2022-08-06T10:34:44;157848.47;;;21.59;48.89
46682;BME280;34101;53.430;-2.224;2022-08-06T10:37:16;157684.18;;;20.93;50.57
46682;BME280;34101;53.430;-2.224;2022-08-06T10:39:47;157625.30;;;20.69;51.52
46682;BME280;34101;53.430;-2.224;2022-08-06T10:42:16;157634.17;;;20.73;51.91
46682;BME280;34101;53.430;-2.224;2022-08-06T10:44:45;157660.43;;;20.83;50.83
46682;BME280;34101;53.430;-2.224;2022-08-06T10:47:13;157705.32;;;21.01;49.60
46682;BME280;34101;53.430;-2.224;2022-08-06T10:49:41;157701.26;;;21.00;49.90
46682;BME280;34101;53.430;-2.224;2022-08-06T10:52:10;157638.40;;;20.75;50.76
46682;BME280;34101;53.430;-2.224;2022-08-06T10:54:44;157582.29;;;20.52;51.09
46682;BME280;34101;53.430;-2.224;2022-08-06T10:57:12;157607.42;;;20.62;51.35
46682;BME280;34101;53.430;-2.224;2022-08-06T10:59:41;157590.75;;;20.55;51.37
46682;BME280;34101;53.430;-2.224;2022-08-06T11:02:18;157561.40;;;20.44;52.17
46682;BME280;34101;53.430;-2.224;2022-08-06T11:04:52;157500.43;;;20.19;52.65
46682;BME280;34101;53.430;-2.224;2022-08-06T11:07:39;157455.15;;;20.01;53.17
46682;BME280;34101;53.430;-2.224;2022-08-06T11:10:23;157451.49;;;20.00;53.29
46682;BME280;34101;53.430;-2.224;2022-08-06T11:12:58;157455.07;;;20.01;53.18
46682;BME280;34101;53.430;-2.224;2022-08-06T11:15:34;157486.36;;;20.14;53.64
46682;BME280;34101;53.430;-2.224;2022-08-06T11:18:05;157518.15;;;20.26;53.31
46682;BME280;34101;53.430;-2.224;2022-08-06T11:20:37;157501.24;;;20.20;53.59
46682;BME280;34101;53.430;-2.224;2022-08-06T11:23:21;157455.15;;;20.01;53.45
46682;BME280;34101;53.430;-2.224;2022-08-06T11:25:51;157355.18;;;19.61;54.24
46682;BME280;34101;53.430;-2.224;2022-08-06T11:31:06;157328.12;;;19.50;55.69
46682;BME280;34101;53.430;-2.224;2022-08-06T11:34:09;157299.68;;;19.39;57.14
46682;BME280;34101;53.430;-2.224;2022-08-06T11:36:50;157259.46;;;19.23;57.56
46682;BME280;34101;53.430;-2.224;2022-08-06T11:39:18;157276.77;;;19.30;57.34
46682;BME280;34101;53.430;-2.224;2022-08-06T11:41:49;157290.34;;;19.35;57.25
46682;BME280;34101;53.430;-2.224;2022-08-06T11:44:18;157246.46;;;19.18;56.78
46682;BME280;34101;53.430;-2.224;2022-08-06T11:46:46;157273.60;;;19.28;56.09
46682;BME280;34101;53.430;-2.224;2022-08-06T11:49:16;157304.56;;;19.41;56.30
46682;BME280;34101;53.430;-2.224;2022-08-06T11:51:45;157195.77;;;18.97;56.60
46682;BME280;34101;53.430;-2.224;2022-08-06T11:54:15;157240.94;;;19.15;55.93
46682;BME280;34101;53.430;-2.224;2022-08-06T11:57:26;157277.25;;;19.30;55.87
46682;BME280;34101;53.430;-2.224;2022-08-06T12:00:07;157326.01;;;19.49;54.22
46682;BME280;34101;53.430;-2.224;2022-08-06T12:03:06;157432.72;;;19.92;52.98
46682;BME280;34101;53.430;-2.224;2022-08-06T12:05:36;157539.93;;;20.35;50.37
46682;BME280;34101;53.430;-2.224;2022-08-06T12:08:22;157645.63;;;20.77;49.50
46682;BME280;34101;53.430;-2.224;2022-08-06T12:12:31;157779.09;;;21.31;48.45
46682;BME280;34101;53.430;-2.224;2022-08-06T12:15:01;157824.96;;;21.49;46.94
46682;BME280;34101;53.430;-2.224;2022-08-06T12:17:30;157715.41;;;21.05;47.20
46682;BME280;34101;53.430;-2.224;2022-08-06T12:19:59;157728.74;;;21.11;47.88
46682;BME280;34101;53.430;-2.224;2022-08-06T12:22:26;157780.96;;;21.32;45.77
46682;BME280;34101;53.430;-2.224;2022-08-06T12:24:56;157880.53;;;21.72;46.91
46682;BME280;34101;53.430;-2.224;2022-08-06T12:27:30;157972.30;;;22.08;46.47
46682;BME280;34101;53.430;-2.224;2022-08-06T12:29:59;158090.46;;;22.56;45.38
46682;BME280;34101;53.430;-2.224;2022-08-06T12:32:28;158143.61;;;22.77;45.47
46682;BME280;34101;53.430;-2.224;2022-08-06T12:34:58;158194.49;;;22.97;45.18
46682;BME280;34101;53.430;-2.224;2022-08-06T12:37:35;158226.40;;;23.10;45.26
46682;BME280;34101;53.430;-2.224;2022-08-06T12:40:06;158221.43;;;23.08;45.26
46682;BME280;34101;53.430;-2.224;2022-08-06T12:42:33;158238.94;;;23.15;45.03
46682;BME280;34101;53.430;-2.224;2022-08-06T12:45:00;158210.36;;;23.04;45.50
46682;BME280;34101;53.430;-2.224;2022-08-06T12:47:28;158224.61;;;23.09;45.39
46682;BME280;34101;53.430;-2.224;2022-08-06T12:49:55;158214.43;;;23.05;45.38
46682;BME280;34101;53.430;-2.224;2022-08-06T12:52:23;158197.58;;;22.98;45.32
46682;BME280;34101;53.430;-2.224;2022-08-06T12:54:50;158124.24;;;22.69;45.22
46682;BME280;34101;53.430;-2.224;2022-08-06T12:57:22;158058.80;;;22.43;46.04
46682;BME280;34101;53.430;-2.224;2022-08-06T12:59:50;158061.41;;;22.44;46.46
46682;BME280;34101;53.430;-2.224;2022-08-06T13:02:20;158037.89;;;22.34;47.23
46682;BME280;34101;53.430;-2.224;2022-08-06T13:04:50;158002.49;;;22.20;46.99
46682;BME280;34101;53.430;-2.224;2022-08-06T13:07:19;158012.91;;;22.24;46.35